Time;durP1;ratioP1;P1;durP2;ratioP2;P2;SDS_P1;SDS_P2;PMS_P1;PMS_P2;Temp;Humidity;BMP_temperature;BMP_pressure;BME280_temperature;BME280_humidity;BME280_pressure;Samples;Min_cycle;Max_cycle;Signal;HPM_P1;HPM_P2
2024/03/08 00:01:44;;;;;;;34.10;21.58;;;4.70;99.90;;;;;;5014445;28;20388;-86
2024/03/08 00:04:10;;;;;;;33.88;20.42;;;4.70;99.90;;;;;;5031798;28;20132;-87
2024/03/08 00:06:36;;;;;;;32.42;20.38;;;4.60;99.90;;;;;;5017938;28;20041;-86
2024/03/08 00:09:02;;;;;;;35.95;21.52;;;4.60;99.90;;;;;;5033350;28;20025;-87
2024/03/08 00:11:27;;;;;;;38.10;21.48;;;4.60;99.90;;;;;;5015918;28;20512;-86
2024/03/08 00:13:53;;;;;;;33.08;21.98;;;4.60;99.90;;;;;;5015716;28;20539;-87
2024/03/08 00:16:23;;;;;;;34.60;20.70;;;4.50;99.90;;;;;;5037538;28;20042;-86
2024/03/08 00:18:49;;;;;;;32.05;19.75;;;4.50;99.90;;;;;;5017363;28;20385;-86
2024/03/08 00:21:15;;;;;;;31.58;21.00;;;4.50;99.90;;;;;;5035739;28;20027;-87
2024/03/08 00:23:41;;;;;;;30.80;20.25;;;4.50;99.90;;;;;;5047820;28;20643;-87
2024/03/08 00:26:07;;;;;;;33.63;21.38;;;4.50;99.90;;;;;;5051393;28;20038;-87
2024/03/08 00:28:34;;;;;;;33.63;20.40;;;4.40;99.90;;;;;;5032675;28;20048;-86
2024/03/08 00:31:00;;;;;;;31.27;20.45;;;4.40;99.90;;;;;;5039737;28;20063;-87
2024/03/08 00:33:27;;;;;;;34.63;22.50;;;4.30;99.90;;;;;;5065216;28;20117;-82
2024/03/08 00:35:53;;;;;;;33.75;22.30;;;4.30;99.90;;;;;;5031385;28;20047;-87
2024/03/08 00:38:19;;;;;;;31.80;20.83;;;4.20;99.90;;;;;;5003834;28;20030;-86
2024/03/08 00:40:45;;;;;;;33.85;21.90;;;4.20;99.90;;;;;;4996696;28;20022;-86
2024/03/08 00:43:12;;;;;;;31.95;20.58;;;4.20;99.90;;;;;;5014915;28;20380;-86
2024/03/08 00:45:37;;;;;;;33.60;21.73;;;4.20;99.90;;;;;;5039720;28;20536;-86
2024/03/08 00:48:05;;;;;;;35.15;21.70;;;4.20;99.90;;;;;;5016185;28;20032;-87
2024/03/08 00:50:31;;;;;;;31.83;20.40;;;4.20;99.90;;;;;;5032014;28;20045;-88
2024/03/08 00:52:57;;;;;;;31.77;20.52;;;4.20;99.90;;;;;;5031827;28;20465;-86
2024/03/08 00:55:22;;;;;;;30.80;19.70;;;4.20;99.90;;;;;;5032019;28;20152;-86
2024/03/08 00:57:48;;;;;;;31.92;20.40;;;4.20;99.90;;;;;;5003815;28;20022;-86
2024/03/08 01:00:14;;;;;;;33.47;21.73;;;4.20;99.90;;;;;;4996191;28;20022;-87
2024/03/08 01:02:40;;;;;;;33.67;21.38;;;4.10;99.90;;;;;;5043260;28;20033;-87
2024/03/08 01:05:09;;;;;;;30.08;19.95;;;4.10;99.90;;;;;;5031371;28;20024;-87
2024/03/08 01:07:35;;;;;;;29.95;20.35;;;4.10;99.90;;;;;;4999177;28;20476;-86
2024/03/08 01:10:02;;;;;;;33.45;22.05;;;4.00;99.90;;;;;;5022759;28;20084;-87
2024/03/08 01:12:29;;;;;;;31.15;21.58;;;4.00;99.90;;;;;;5033043;28;20036;-85
2024/03/08 01:14:55;;;;;;;30.48;21.15;;;4.00;99.90;;;;;;5019403;28;20338;-86
2024/03/08 01:17:21;;;;;;;31.60;21.65;;;4.00;99.90;;;;;;5002460;28;20033;-87
2024/03/08 01:19:47;;;;;;;30.05;20.55;;;3.90;99.90;;;;;;5035287;28;20039;-85
2024/03/08 01:22:13;;;;;;;32.70;20.67;;;4.00;99.90;;;;;;5020928;28;20083;-87
2024/03/08 01:24:38;;;;;;;30.33;20.35;;;4.00;99.90;;;;;;5054841;28;20037;-87
2024/03/08 01:27:04;;;;;;;31.17;20.73;;;4.00;99.90;;;;;;5022151;28;20121;-87
2024/03/08 01:29:32;;;;;;;31.42;21.42;;;4.00;99.90;;;;;;5016644;28;20034;-87
2024/03/08 01:32:01;;;;;;;28.10;20.48;;;4.00;99.90;;;;;;5035462;28;20488;-88
2024/03/08 01:34:28;;;;;;;29.42;20.63;;;4.00;99.90;;;;;;5037282;28;21773;-86
2024/03/08 01:36:56;;;;;;;32.42;20.88;;;4.00;99.90;;;;;;5008385;28;20374;-86
2024/03/08 01:39:22;;;;;;;28.25;20.35;;;4.00;99.90;;;;;;5006737;28;20103;-86
2024/03/08 01:41:48;;;;;;;27.73;20.00;;;3.90;99.90;;;;;;5000373;28;20034;-86
2024/03/08 01:44:17;;;;;;;29.55;19.60;;;3.90;99.90;;;;;;5036397;28;20029;-86
2024/03/08 01:46:44;;;;;;;30.98;20.83;;;3.90;99.90;;;;;;5033544;28;20044;-86
2024/03/08 01:49:14;;;;;;;29.25;21.08;;;3.90;99.90;;;;;;5065767;28;20013;-85
2024/03/08 01:51:41;;;;;;;29.95;20.20;;;3.90;99.90;;;;;;5051711;28;20009;-82
2024/03/08 01:54:09;;;;;;;33.60;20.95;;;3.80;99.90;;;;;;5019538;28;20025;-86
2024/03/08 01:56:37;;;;;;;30.70;20.88;;;3.80;99.90;;;;;;5019975;28;20060;-86
2024/03/08 01:59:04;;;;;;;32.25;21.20;;;3.80;99.90;;;;;;5041857;28;20040;-86
2024/03/08 02:01:30;;;;;;;25.95;19.38;;;3.90;99.90;;;;;;5033184;28;20026;-87
2024/03/08 02:03:55;;;;;;;27.02;19.13;;;3.80;99.90;;;;;;5017799;28;20122;-88
2024/03/08 02:06:21;;;;;;;32.13;20.85;;;3.90;99.90;;;;;;5035356;28;20056;-87
2024/03/08 02:08:47;;;;;;;33.08;21.70;;;3.80;99.90;;;;;;5034291;28;20021;-87
2024/03/08 02:11:13;;;;;;;30.23;20.63;;;3.80;99.90;;;;;;5020175;28;20496;-87
2024/03/08 02:13:40;;;;;;;28.55;19.83;;;3.80;99.90;;;;;;5039870;28;20488;-82
2024/03/08 02:16:07;;;;;;;30.63;20.67;;;3.80;99.90;;;;;;5017663;28;20496;-86
2024/03/08 02:18:34;;;;;;;28.80;19.98;;;3.70;99.90;;;;;;5017983;28;20075;-86
2024/03/08 02:21:02;;;;;;;29.67;20.75;;;3.70;99.90;;;;;;5017438;28;20029;-86
2024/03/08 02:23:28;;;;;;;30.20;20.83;;;3.70;99.90;;;;;;5009883;28;20089;-86
2024/03/08 02:25:56;;;;;;;34.20;22.48;;;3.70;99.90;;;;;;5039907;28;20036;-86
2024/03/08 02:28:22;;;;;;;28.67;20.65;;;3.70;99.90;;;;;;5017627;28;20032;-86
2024/03/08 02:30:50;;;;;;;31.45;21.02;;;3.60;99.90;;;;;;5008147;28;20079;-86
2024/03/08 02:33:17;;;;;;;32.08;21.52;;;3.60;99.90;;;;;;5035201;28;20024;-86
2024/03/08 02:35:46;;;;;;;27.88;19.63;;;3.60;99.90;;;;;;5018710;28;20037;-87
2024/03/08 02:38:13;;;;;;;28.95;19.90;;;3.60;99.90;;;;;;5007864;28;20034;-86
2024/03/08 02:40:39;;;;;;;30.92;21.60;;;3.60;99.90;;;;;;5008794;28;20033;-86
2024/03/08 02:43:04;;;;;;;30.00;20.67;;;3.60;99.90;;;;;;5019456;28;20095;-86
2024/03/08 02:45:30;;;;;;;29.40;21.05;;;3.50;99.90;;;;;;5033525;28;20037;-87
2024/03/08 02:47:56;;;;;;;28.58;20.58;;;3.60;99.90;;;;;;5038342;28;20059;-86
2024/03/08 02:50:22;;;;;;;28.60;21.15;;;3.60;99.90;;;;;;5033701;28;20493;-86
2024/03/08 02:52:48;;;;;;;30.17;20.27;;;3.50;99.90;;;;;;5017007;28;20025;-87
2024/03/08 02:55:17;;;;;;;30.27;20.83;;;3.50;99.90;;;;;;5043821;28;20060;-85
2024/03/08 02:57:43;;;;;;;28.08;20.63;;;3.50;99.90;;;;;;5026465;28;20030;-84
2024/03/08 03:00:10;;;;;;;29.58;21.70;;;3.50;99.90;;;;;;5033550;28;20033;-86
2024/03/08 03:02:37;;;;;;;32.88;22.17;;;3.50;99.90;;;;;;5017372;28;20045;-86
2024/03/08 03:05:05;;;;;;;32.65;23.10;;;3.40;99.90;;;;;;5017910;28;20032;-87
2024/03/08 03:07:33;;;;;;;32.97;21.92;;;3.40;99.90;;;;;;5045920;28;20073;-86
2024/03/08 03:10:00;;;;;;;32.95;22.67;;;3.30;99.90;;;;;;5041582;28;20039;-85
2024/03/08 03:12:29;;;;;;;30.00;21.25;;;3.30;99.90;;;;;;5071122;28;20009;-85
2024/03/08 03:14:56;;;;;;;31.88;22.27;;;3.20;99.90;;;;;;5010240;28;20029;-87
2024/03/08 03:17:24;;;;;;;29.33;20.52;;;3.20;99.90;;;;;;5010461;28;20116;-86
2024/03/08 03:19:53;;;;;;;29.88;22.13;;;3.20;99.90;;;;;;5033052;28;20025;-86
2024/03/08 03:22:19;;;;;;;29.02;22.35;;;3.20;99.90;;;;;;5032629;28;20099;-86
2024/03/08 03:24:51;;;;;;;31.02;22.20;;;3.30;99.90;;;;;;5016471;28;20036;-86
2024/03/08 03:27:17;;;;;;;;;;;3.20;99.90;;;;;;5040753;28;20117;-86
2024/03/08 03:29:46;;;;;;;29.75;21.90;;;3.20;99.90;;;;;;5026096;28;19952;-85
2024/03/08 03:32:13;;;;;;;30.92;21.70;;;3.20;99.90;;;;;;5036729;28;20060;-86
2024/03/08 03:34:40;;;;;;;29.35;21.77;;;3.20;99.90;;;;;;5016091;28;20040;-86
2024/03/08 03:37:12;;;;;;;30.17;22.08;;;3.20;99.90;;;;;;5033963;28;20026;-86
2024/03/08 03:39:52;;;;;;;33.13;23.05;;;3.20;99.90;;;;;;5009119;28;20481;-86
2024/03/08 03:42:19;;;;;;;27.13;20.58;;;3.20;99.90;;;;;;5033736;28;20032;-86
2024/03/08 03:44:48;;;;;;;31.10;21.92;;;3.20;99.90;;;;;;5012057;28;20030;-87
2024/03/08 03:47:17;;;;;;;33.95;22.83;;;3.20;99.90;;;;;;5046151;28;20025;-86
2024/03/08 03:49:43;;;;;;;30.25;22.70;;;3.20;99.90;;;;;;5032357;28;20084;-86
2024/03/08 03:52:10;;;;;;;31.67;22.58;;;3.20;99.90;;;;;;5015829;28;20437;-86
2024/03/08 03:54:36;;;;;;;28.70;20.75;;;3.10;99.90;;;;;;5015715;28;20512;-86
2024/03/08 03:57:02;;;;;;;30.42;21.45;;;3.10;99.90;;;;;;5034683;28;20053;-87
2024/03/08 03:59:28;;;;;;;28.83;21.50;;;3.10;99.90;;;;;;5015818;28;20030;-86
2024/03/08 04:01:54;;;;;;;30.35;22.38;;;3.10;99.90;;;;;;5015574;28;20044;-86
2024/03/08 04:04:21;;;;;;;29.33;21.60;;;3.10;99.90;;;;;;5033390;28;20037;-86
2024/03/08 04:06:47;;;;;;;31.75;21.77;;;3.10;99.90;;;;;;5016118;28;20028;-87
2024/03/08 04:09:13;;;;;;;32.83;24.27;;;3.10;99.90;;;;;;5032271;28;20025;-87
2024/03/08 04:11:39;;;;;;;36.38;23.38;;;3.00;99.90;;;;;;5015948;28;20354;-86
2024/03/08 04:14:05;;;;;;;32.05;24.25;;;3.00;99.90;;;;;;5032641;28;20469;-87
2024/03/08 04:16:31;;;;;;;29.08;21.40;;;2.90;99.90;;;;;;4996668;28;20037;-86
2024/03/08 04:18:58;;;;;;;33.45;22.60;;;2.90;99.90;;;;;;5032935;28;20032;-86
2024/03/08 04:21:23;;;;;;;29.48;21.42;;;2.90;99.90;;;;;;5017447;28;20037;-86
2024/03/08 04:23:49;;;;;;;34.33;23.33;;;3.00;99.90;;;;;;5024779;28;20033;-85
2024/03/08 04:26:15;;;;;;;29.95;22.13;;;2.90;99.90;;;;;;5057154;28;20045;-86
2024/03/08 04:28:41;;;;;;;31.98;23.80;;;2.90;99.90;;;;;;5042435;28;20427;-87
2024/03/08 04:31:07;;;;;;;34.55;24.73;;;2.90;99.90;;;;;;5041024;28;20485;-87
2024/03/08 04:33:35;;;;;;;34.40;24.10;;;2.90;99.90;;;;;;5015785;28;20029;-86
2024/03/08 04:36:04;;;;;;;33.35;24.38;;;2.80;99.90;;;;;;5032142;28;20481;-86
2024/03/08 04:38:30;;;;;;;32.78;22.33;;;2.80;99.90;;;;;;5004095;28;20033;-86
2024/03/08 04:40:57;;;;;;;32.53;23.67;;;2.80;99.90;;;;;;4993103;28;20049;-85
2024/03/08 04:43:25;;;;;;;33.33;22.85;;;2.80;99.90;;;;;;5032858;28;20025;-86
2024/03/08 04:45:51;;;;;;;33.17;24.38;;;2.70;99.90;;;;;;4999858;28;20103;-86
2024/03/08 04:48:17;;;;;;;32.78;24.40;;;2.70;99.90;;;;;;5017491;28;20033;-86
2024/03/08 04:50:42;;;;;;;33.15;23.55;;;2.70;99.90;;;;;;5018857;28;20028;-87
2024/03/08 04:53:08;;;;;;;32.40;23.63;;;2.70;99.90;;;;;;5035411;28;20033;-86
2024/03/08 04:55:34;;;;;;;32.03;23.05;;;2.70;99.90;;;;;;5019011;28;20032;-86
2024/03/08 04:58:00;;;;;;;32.40;22.90;;;2.70;99.90;;;;;;5019072;28;20469;-86
2024/03/08 05:00:26;;;;;;;30.42;22.05;;;2.70;99.90;;;;;;5002465;28;20029;-86
2024/03/08 05:02:53;;;;;;;30.20;22.58;;;2.70;99.90;;;;;;5002590;28;20473;-86
2024/03/08 05:05:22;;;;;;;32.67;24.67;;;2.70;99.90;;;;;;5035335;28;20038;-88
2024/03/08 05:07:48;;;;;;;31.50;23.48;;;2.70;99.90;;;;;;5003605;28;20148;-87
2024/03/08 05:10:17;;;;;;;34.05;24.00;;;2.70;99.90;;;;;;5018110;28;20537;-86
2024/03/08 05:12:43;;;;;;;36.92;23.27;;;2.70;99.90;;;;;;5016627;28;20535;-86
2024/03/08 05:15:09;;;;;;;36.03;24.58;;;2.70;99.90;;;;;;5031351;28;20026;-86
2024/03/08 05:17:34;;;;;;;31.95;22.98;;;2.60;99.90;;;;;;5032062;28;20477;-86
2024/03/08 05:20:00;;;;;;;29.55;21.70;;;2.60;99.90;;;;;;5051954;28;20040;-86
2024/03/08 05:22:26;;;;;;;33.25;22.73;;;2.60;99.90;;;;;;4997823;28;20041;-87
2024/03/08 05:24:52;;;;;;;33.97;22.58;;;2.70;99.90;;;;;;5015358;28;20068;-86
2024/03/08 05:27:17;;;;;;;30.80;23.08;;;2.60;99.90;;;;;;5010515;28;20030;-85
2024/03/08 05:29:43;;;;;;;34.55;24.05;;;2.60;99.90;;;;;;5029090;28;20036;-86
2024/03/08 05:32:09;;;;;;;35.67;24.23;;;2.60;99.90;;;;;;5018649;28;20495;-86
2024/03/08 05:34:35;;;;;;;34.25;23.85;;;2.60;99.90;;;;;;5052109;28;20460;-86
2024/03/08 05:37:01;;;;;;;31.67;22.80;;;2.60;99.90;;;;;;5003181;28;20037;-86
2024/03/08 05:39:27;;;;;;;31.25;22.63;;;2.60;99.90;;;;;;5017192;28;20118;-85
2024/03/08 05:41:55;;;;;;;30.10;22.38;;;2.60;99.90;;;;;;5050479;28;20010;-85
2024/03/08 05:44:20;;;;;;;34.58;23.98;;;2.70;99.90;;;;;;5042488;28;20021;-85
2024/03/08 05:46:46;;;;;;;32.33;23.15;;;2.60;99.90;;;;;;5058863;28;20038;-84
2024/03/08 05:49:13;;;;;;;35.60;24.65;;;2.60;99.90;;;;;;5056237;28;20469;-86
2024/03/08 05:51:40;;;;;;;33.33;23.80;;;2.60;99.90;;;;;;5047769;28;20473;-86
2024/03/08 05:54:11;;;;;;;32.72;23.75;;;2.50;99.90;;;;;;5031396;28;20108;-87
2024/03/08 05:56:37;;;;;;;35.15;24.45;;;2.60;99.90;;;;;;5035988;28;20021;-87
2024/03/08 05:59:04;;;;;;;31.02;23.35;;;2.60;99.90;;;;;;5017128;28;20048;-87
2024/03/08 06:01:30;;;;;;;35.83;23.52;;;2.60;99.90;;;;;;5035443;28;20053;-87
2024/03/08 06:03:57;;;;;;;31.55;23.95;;;2.60;99.90;;;;;;5037787;28;20086;-86
2024/03/08 06:06:23;;;;;;;33.72;22.98;;;2.60;99.90;;;;;;5043053;28;20029;-88
2024/03/08 06:08:50;;;;;;;34.30;24.83;;;2.60;99.90;;;;;;5018816;28;20469;-88
2024/03/08 06:11:17;;;;;;;31.58;23.40;;;2.60;99.90;;;;;;4999073;28;20030;-88
2024/03/08 06:13:43;;;;;;;32.53;23.15;;;2.60;99.90;;;;;;5023106;28;20017;-89
2024/03/08 06:16:10;;;;;;;28.73;21.80;;;2.60;99.90;;;;;;5028316;28;20504;-88
2024/03/08 06:18:46;;;;;;;35.20;24.45;;;2.60;99.90;;;;;;5018466;28;20033;-87
2024/03/08 06:21:12;;;;;;;35.03;24.88;;;2.60;99.90;;;;;;5001258;28;20029;-86
2024/03/08 06:23:38;;;;;;;36.03;25.73;;;2.60;99.90;;;;;;5017270;28;20570;-85
2024/03/08 06:26:05;;;;;;;35.45;24.52;;;2.50;99.90;;;;;;5033729;28;20478;-87
2024/03/08 06:28:32;;;;;;;35.17;25.35;;;2.50;99.90;;;;;;5019623;28;20555;-87
2024/03/08 06:31:02;;;;;;;38.20;25.58;;;2.50;99.90;;;;;;5015678;28;20142;-89
2024/03/08 06:33:28;;;;;;;34.72;23.95;;;2.40;99.90;;;;;;5035507;28;20029;-88
2024/03/08 06:35:57;;;;;;;35.25;24.73;;;2.40;99.90;;;;;;5017792;28;20072;-88
2024/03/08 06:38:24;;;;;;;37.92;26.15;;;2.40;99.90;;;;;;5018065;28;20055;-89
2024/03/08 06:40:51;;;;;;;37.40;26.00;;;2.40;99.90;;;;;;5035840;28;20028;-88
2024/03/08 06:43:18;;;;;;;38.85;25.77;;;2.40;99.90;;;;;;5036868;28;20037;-88
2024/03/08 06:45:50;;;;;;;37.50;26.45;;;2.40;99.90;;;;;;5006298;28;20037;-87
2024/03/08 06:48:19;;;;;;;36.35;24.90;;;2.50;99.90;;;;;;5046132;28;20109;-88
2024/03/08 06:50:46;;;;;;;38.15;25.70;;;2.40;99.90;;;;;;5037397;28;20026;-88
2024/03/08 06:53:12;;;;;;;37.85;26.23;;;2.50;99.90;;;;;;5062988;28;20022;-87
2024/03/08 06:55:38;;;;;;;35.13;25.73;;;2.50;99.90;;;;;;5023937;28;20229;-87
2024/03/08 06:58:04;;;;;;;36.42;25.88;;;2.50;99.90;;;;;;5022284;28;20060;-87
2024/03/08 07:00:30;;;;;;;39.45;26.02;;;2.50;99.90;;;;;;5057076;28;20057;-86
2024/03/08 07:03:00;;;;;;;35.50;25.42;;;2.50;99.90;;;;;;5023978;28;20018;-85
2024/03/08 07:05:26;;;;;;;37.75;26.73;;;2.50;99.90;;;;;;5038844;28;20025;-86
2024/03/08 07:07:52;;;;;;;37.67;23.73;;;2.50;99.90;;;;;;5050831;28;20088;-87
2024/03/08 07:10:19;;;;;;;31.70;23.45;;;2.50;99.90;;;;;;5035141;28;20420;-88
2024/03/08 07:12:46;;;;;;;34.50;25.45;;;2.60;99.90;;;;;;5033335;28;20021;-88
2024/03/08 07:15:15;;;;;;;41.28;26.20;;;2.60;99.90;;;;;;5037215;28;20028;-84
2024/03/08 07:17:44;;;;;;;37.70;26.15;;;2.70;99.90;;;;;;5033960;28;20093;-89
2024/03/08 07:20:12;;;;;;;37.65;26.63;;;2.70;99.90;;;;;;5017677;28;20098;-87
2024/03/08 07:22:38;;;;;;;37.20;26.25;;;2.60;99.90;;;;;;5044142;28;20780;-86
2024/03/08 07:27:36;;;;;;;39.15;27.27;;;2.60;99.90;;;;;;5026971;28;20037;-88
2024/03/08 07:30:05;;;;;;;37.78;26.42;;;2.60;99.90;;;;;;5034824;28;20099;-88
2024/03/08 07:32:31;;;;;;;35.88;26.13;;;2.70;99.90;;;;;;5033786;28;20138;-91
2024/03/08 07:34:58;;;;;;;36.25;25.85;;;2.70;99.90;;;;;;5033222;28;20545;-87
2024/03/08 07:37:24;;;;;;;37.78;26.27;;;2.70;99.90;;;;;;5032607;28;20024;-88
2024/03/08 07:39:50;;;;;;;36.33;25.60;;;2.80;99.90;;;;;;5040651;28;20100;-87
2024/03/08 07:42:16;;;;;;;40.88;26.50;;;2.80;99.90;;;;;;5022287;28;20025;-87
2024/03/08 07:44:42;;;;;;;36.88;26.02;;;2.90;99.90;;;;;;5016441;28;20037;-88
2024/03/08 07:47:09;;;;;;;39.75;27.13;;;2.90;99.90;;;;;;5032733;28;20551;-87
2024/03/08 07:49:37;;;;;;;41.75;28.13;;;2.90;99.90;;;;;;5032514;28;20029;-87
2024/03/08 07:52:07;;;;;;;39.88;26.95;;;3.00;99.90;;;;;;5034332;28;20512;-88
2024/03/08 07:54:34;;;;;;;39.28;26.02;;;3.00;99.90;;;;;;5049236;28;20025;-87
2024/03/08 07:57:02;;;;;;;39.53;27.15;;;3.10;99.90;;;;;;5021220;28;20030;-88
2024/03/08 07:59:29;;;;;;;37.40;26.95;;;3.10;99.90;;;;;;5047761;28;20064;-87
2024/03/08 08:01:55;;;;;;;37.83;26.83;;;3.10;99.90;;;;;;5007817;28;20022;-86
2024/03/08 08:04:24;;;;;;;39.50;28.65;;;3.20;99.90;;;;;;5029089;28;20028;-86
2024/03/08 08:06:51;;;;;;;42.90;28.02;;;3.20;99.90;;;;;;5037770;28;20022;-86
2024/03/08 08:09:28;;;;;;;38.53;27.27;;;3.30;99.90;;;;;;5016548;28;20040;-86
2024/03/08 08:11:54;;;;;;;39.20;26.92;;;3.30;99.90;;;;;;5045887;28;20025;-86
2024/03/08 08:14:21;;;;;;;38.33;28.27;;;3.40;99.90;;;;;;5034987;28;20044;-88
2024/03/08 08:16:48;;;;;;;37.63;26.95;;;3.40;99.90;;;;;;5053514;28;20013;-86
2024/03/08 08:19:15;;;;;;;40.15;26.95;;;3.50;99.90;;;;;;5039350;28;20042;-84
2024/03/08 08:21:41;;;;;;;38.85;27.25;;;3.60;99.90;;;;;;5036904;28;20028;-84
2024/03/08 08:24:07;;;;;;;41.35;27.65;;;3.60;99.90;;;;;;5030028;28;20107;-86
2024/03/08 08:26:34;;;;;;;35.45;25.63;;;3.70;99.90;;;;;;5019565;28;20037;-86
2024/03/08 08:28:59;;;;;;;37.38;27.42;;;3.80;99.90;;;;;;5036148;28;20488;-85
2024/03/08 08:31:28;;;;;;;40.78;28.55;;;3.90;99.90;;;;;;5019395;28;20021;-85
2024/03/08 08:33:58;;;;;;;39.63;27.98;;;3.90;99.90;;;;;;5020393;28;20029;-86
2024/03/08 08:36:24;;;;;;;39.00;27.10;;;4.00;99.90;;;;;;5037541;28;20116;-86
2024/03/08 08:38:50;;;;;;;37.20;27.45;;;4.00;99.90;;;;;;5002773;28;20025;-86
2024/03/08 08:41:17;;;;;;;36.38;25.90;;;4.10;99.90;;;;;;5035676;28;20128;-85
2024/03/08 08:43:45;;;;;;;35.97;25.70;;;4.20;99.90;;;;;;5019289;28;20029;-86
2024/03/08 08:46:14;;;;;;;39.78;25.85;;;4.30;99.90;;;;;;5001233;28;20424;-86
2024/03/08 08:48:45;;;;;;;35.00;24.90;;;4.40;99.90;;;;;;5028831;28;20496;-85
2024/03/08 08:51:15;;;;;;;35.25;24.73;;;4.50;99.90;;;;;;5019563;28;20469;-86
2024/03/08 08:53:42;;;;;;;34.58;25.75;;;4.60;99.90;;;;;;5034967;28;20055;-86
2024/03/08 08:56:09;;;;;;;35.78;25.92;;;4.70;99.90;;;;;;5035338;28;20196;-85
2024/03/08 08:58:35;;;;;;;34.78;25.90;;;4.70;99.90;;;;;;5038991;28;20021;-85
2024/03/08 09:01:01;;;;;;;33.83;24.65;;;4.80;99.90;;;;;;5019172;28;20033;-86
2024/03/08 09:03:29;;;;;;;34.50;25.83;;;4.90;99.90;;;;;;5035092;28;20487;-86
2024/03/08 09:05:56;;;;;;;33.65;25.23;;;5.00;99.90;;;;;;5035817;28;20052;-85
2024/03/08 09:08:23;;;;;;;33.72;23.77;;;5.00;99.90;;;;;;5035133;28;20056;-86
2024/03/08 09:10:48;;;;;;;34.15;23.77;;;5.10;99.90;;;;;;5018683;28;20044;-86
2024/03/08 09:13:14;;;;;;;37.45;26.27;;;5.20;99.90;;;;;;5018409;28;20025;-86
2024/03/08 09:15:41;;;;;;;31.20;24.35;;;5.20;99.90;;;;;;5035314;28;20041;-85
2024/03/08 09:18:08;;;;;;;35.97;25.35;;;5.30;99.90;;;;;;5048764;28;20087;-85
2024/03/08 09:20:33;;;;;;;33.45;24.92;;;5.40;99.90;;;;;;5018700;28;20389;-85
2024/03/08 09:22:59;;;;;;;36.90;25.58;;;5.40;99.90;;;;;;5021481;28;20041;-85
2024/03/08 09:25:26;;;;;;;31.70;23.42;;;5.50;99.90;;;;;;5043900;28;20116;-85
2024/03/08 09:27:51;;;;;;;32.72;22.88;;;5.50;99.90;;;;;;5035030;28;20046;-85
2024/03/08 09:30:17;;;;;;;32.42;23.00;;;5.60;99.90;;;;;;5035294;28;20132;-85
2024/03/08 09:32:43;;;;;;;33.65;22.63;;;5.70;99.90;;;;;;5036877;28;20097;-85
2024/03/08 09:35:10;;;;;;;33.53;24.42;;;5.80;99.90;;;;;;5050222;28;20014;-84
2024/03/08 09:37:37;;;;;;;32.60;23.58;;;5.90;99.90;;;;;;5026981;28;20033;-83
2024/03/08 09:40:09;;;;;;;33.05;24.63;;;6.00;99.90;;;;;;5064067;28;20029;-84
2024/03/08 09:42:38;;;;;;;31.63;22.90;;;6.00;99.90;;;;;;5040167;28;20040;-84
2024/03/08 09:45:15;;;;;;;30.63;22.90;;;6.10;99.90;;;;;;5035761;28;20025;-85
2024/03/08 09:47:48;;;;;;;31.27;23.73;;;6.20;99.90;;;;;;5034400;28;20477;-85
2024/03/08 09:50:14;;;;;;;31.13;24.30;;;6.30;99.90;;;;;;5018387;28;20029;-86
2024/03/08 09:52:40;;;;;;;30.80;22.95;;;6.30;99.90;;;;;;5033881;28;20112;-87
2024/03/08 09:55:07;;;;;;;30.75;22.45;;;6.40;99.90;;;;;;5022025;28;20053;-86
2024/03/08 09:57:33;;;;;;;31.50;23.05;;;6.50;99.90;;;;;;5016626;28;20172;-88
2024/03/08 09:59:59;;;;;;;31.10;23.95;;;6.60;99.90;;;;;;5046103;28;20099;-88
2024/03/08 10:02:25;;;;;;;29.13;23.25;;;6.60;99.90;;;;;;5002550;28;20025;-88
2024/03/08 10:04:53;;;;;;;31.95;24.45;;;6.70;99.90;;;;;;5035375;28;20025;-87
2024/03/08 10:07:19;;;;;;;31.23;22.38;;;6.70;99.50;;;;;;5022354;28;20472;-87
2024/03/08 10:09:51;;;;;;;31.80;23.42;;;6.70;99.50;;;;;;5045423;28;20428;-87
2024/03/08 10:12:17;;;;;;;32.90;22.80;;;6.70;99.40;;;;;;5019010;28;20013;-87
2024/03/08 10:14:43;;;;;;;28.80;21.67;;;6.80;99.50;;;;;;5019005;28;20022;-87
2024/03/08 10:17:09;;;;;;;31.90;22.52;;;6.80;99.70;;;;;;5001646;28;20029;-88
2024/03/08 10:19:35;;;;;;;30.60;21.58;;;6.90;99.80;;;;;;5034133;28;20026;-88
2024/03/08 10:22:01;;;;;;;30.45;22.08;;;7.00;99.80;;;;;;5017949;28;20091;-88
2024/03/08 10:24:27;;;;;;;28.95;21.75;;;7.10;99.70;;;;;;5034114;28;20042;-87
2024/03/08 10:27:01;;;;;;;29.58;21.80;;;7.20;99.50;;;;;;4988762;28;20040;-88
2024/03/08 10:29:28;;;;;;;31.85;21.98;;;7.20;99.30;;;;;;5015327;28;20026;-87
2024/03/08 10:31:55;;;;;;;29.35;21.25;;;7.30;99.40;;;;;;5019198;28;20033;-88
2024/03/08 10:34:23;;;;;;;30.35;21.90;;;7.40;99.50;;;;;;5034803;28;20085;-87
2024/03/08 10:36:51;;;;;;;27.95;21.40;;;7.50;99.30;;;;;;5018051;28;20040;-87
2024/03/08 10:39:23;;;;;;;30.80;22.63;;;7.50;99.30;;;;;;5018061;28;20052;-88
2024/03/08 10:42:02;;;;;;;26.73;20.00;;;7.60;98.90;;;;;;5042762;28;20029;-88
2024/03/08 10:44:34;;;;;;;27.02;20.67;;;7.70;99.00;;;;;;5035695;28;20017;-88
2024/03/08 10:47:23;;;;;;;27.88;20.98;;;7.80;99.10;;;;;;5035319;28;20071;-89
2024/03/08 10:50:03;;;;;;;25.67;20.35;;;7.90;99.00;;;;;;5031401;28;20152;-88
2024/03/08 10:52:31;;;;;;;25.88;19.45;;;8.00;99.00;;;;;;5038221;28;20026;-88
2024/03/08 10:54:58;;;;;;;26.23;19.75;;;8.00;98.40;;;;;;5036768;28;20029;-87
2024/03/08 10:57:24;;;;;;;29.63;22.00;;;8.10;98.50;;;;;;5017848;28;20520;-88
2024/03/08 10:59:51;;;;;;;26.50;20.25;;;8.20;98.20;;;;;;5019517;28;20014;-85
2024/03/08 11:02:19;;;;;;;25.30;19.55;;;8.10;98.40;;;;;;5026091;28;20005;-86
2024/03/08 11:04:49;;;;;;;26.98;20.83;;;8.20;97.80;;;;;;5058581;28;20097;-86
2024/03/08 11:07:18;;;;;;;29.27;21.70;;;8.30;97.80;;;;;;5035673;28;20400;-88
2024/03/08 11:09:45;;;;;;;25.27;19.85;;;8.30;97.80;;;;;;5036533;28;20021;-89
2024/03/08 11:12:36;;;;;;;25.20;19.23;;;8.40;97.80;;;;;;5020541;28;20475;-87
2024/03/08 11:15:25;;;;;;;27.50;20.30;;;8.40;97.80;;;;;;5033207;28;20123;-90
2024/03/08 11:17:55;;;;;;;24.00;18.23;;;8.50;97.50;;;;;;5039516;28;20036;-87
2024/03/08 11:20:24;;;;;;;25.08;18.27;;;8.50;97.60;;;;;;5037346;28;20025;-90
2024/03/08 11:22:54;;;;;;;27.73;18.90;;;8.60;97.40;;;;;;5041614;28;20056;-91
2024/03/08 11:25:45;;;;;;;24.27;18.27;;;8.70;97.00;;;;;;5038955;28;20017;-89
2024/03/08 11:28:21;;;;;;;;;;;8.70;96.90;;;;;;5027621;28;20478;-91
2024/03/08 11:31:07;;;;;;;25.88;19.48;;;8.80;96.60;;;;;;5035604;28;20010;-92
2024/03/08 11:33:35;;;;;;;26.60;17.13;;;8.80;96.70;;;;;;5036547;28;20029;-89
2024/03/08 11:36:17;;;;;;;24.73;18.33;;;8.90;96.50;;;;;;5012840;28;20092;-87
2024/03/08 11:38:49;;;;;;;22.10;17.20;;;8.90;96.00;;;;;;5034055;28;20122;-89
2024/03/08 11:41:19;;;;;;;22.70;17.40;;;9.00;95.70;;;;;;5041257;28;20033;-88
2024/03/08 11:43:46;;;;;;;22.58;16.98;;;9.00;95.80;;;;;;5032874;28;20025;-87
2024/03/08 11:46:13;;;;;;;20.83;15.80;;;9.10;95.70;;;;;;5040783;28;20029;-86
2024/03/08 11:48:43;;;;;;;19.77;15.43;;;9.10;95.90;;;;;;5008645;28;20115;-86
2024/03/08 11:51:13;;;;;;;21.83;17.23;;;9.30;95.80;;;;;;5034312;28;20037;-86
2024/03/08 11:53:42;;;;;;;22.98;16.20;;;9.30;95.30;;;;;;5022168;28;20097;-91
2024/03/08 11:56:13;;;;;;;20.27;15.27;;;9.30;95.80;;;;;;5021686;28;20034;-89
2024/03/08 11:58:40;;;;;;;19.88;15.43;;;9.40;96.00;;;;;;5032391;28;20092;-87
2024/03/08 12:01:13;;;;;;;19.67;15.55;;;9.40;96.20;;;;;;5045730;28;20025;-88
2024/03/08 12:03:42;;;;;;;22.17;15.70;;;9.40;95.30;;;;;;5027336;28;20025;-87
2024/03/08 12:06:09;;;;;;;21.70;16.88;;;9.50;95.60;;;;;;5034181;28;20540;-86
2024/03/08 12:08:35;;;;;;;20.50;16.52;;;9.50;95.20;;;;;;5045881;28;20048;-88
2024/03/08 12:11:01;;;;;;;21.33;16.38;;;9.50;95.20;;;;;;4996181;28;20028;-87
2024/03/08 12:13:29;;;;;;;22.33;16.90;;;9.60;95.30;;;;;;4996640;28;20113;-86
2024/03/08 12:15:59;;;;;;;22.10;17.35;;;9.60;94.90;;;;;;5006738;28;20429;-86
2024/03/08 12:18:28;;;;;;;21.58;16.35;;;9.60;94.80;;;;;;5034781;28;20022;-87
2024/03/08 12:21:17;;;;;;;21.02;15.98;;;9.70;95.00;;;;;;5006735;28;20087;-87
2024/03/08 12:23:44;;;;;;;22.70;17.40;;;9.70;95.10;;;;;;5017448;28;20045;-87
2024/03/08 12:26:18;;;;;;;19.58;16.23;;;9.70;94.70;;;;;;5036240;28;20020;-87
2024/03/08 12:28:45;;;;;;;23.90;17.40;;;9.70;94.60;;;;;;5055075;28;20037;-86
2024/03/08 12:31:20;;;;;;;20.63;16.85;;;9.70;94.30;;;;;;5055372;28;20017;-85
2024/03/08 12:33:58;;;;;;;22.40;17.52;;;9.70;94.20;;;;;;5042083;28;20481;-86
2024/03/08 12:36:25;;;;;;;23.10;16.67;;;9.70;94.10;;;;;;5033328;28;20038;-86
2024/03/08 12:38:54;;;;;;;22.15;16.60;;;9.80;94.30;;;;;;5034279;28;20095;-88
2024/03/08 12:41:21;;;;;;;23.67;18.13;;;9.80;94.30;;;;;;5047322;28;20055;-86
2024/03/08 12:43:50;;;;;;;24.15;18.15;;;9.80;94.00;;;;;;5035507;28;20124;-87